LRTR/TSR METAR and TAF weather

Enter ICAO airport designator
Station Type Date Time Source
LRTR METAR 2019/02/16 17:30 UTC NOAA

LRTR 161730Z 03003KT 7000 NSC 05/03 Q1030 BECMG 5000 BR


Station Type Date Time Source
LRTR Decoded METAR 2019/02/16 17:30 UTC NOAA

Timisoara, Romania (LRTR) 45-46N 021-15E 88M
Feb 16, 2019 - 12:30 PM EST / 2019.02.16 1730 UTC
Wind: from the NNE (030 degrees) at 3 MPH (3 KT):0
Visibility: 4 mile(s):0
Temperature: 41 F (5 C)
Dew Point: 37 F (3 C)
Relative Humidity: 86%
Pressure (altimeter): 30.42 in. Hg (1030 hPa)
ob: LRTR 161730Z 03003KT 7000 NSC 05/03 Q1030 BECMG 5000 BR
cycle: 17

Station Type Date Time Source
LRTR TAF 2019/02/16 18:33 UTC NOAA

TAF LRTR 161700Z 1618/1718 VRB04KT 7000 NSC
BECMG 1621/1623 3000 BR
BECMG 1623/1701 0600 FZFG BKN002 PROB40
TEMPO 1702/1706 0150 FZFG VV001
BECMG 1707/1709 1500 BR BKN005
BECMG 1710/1712 CAVOK


Example: see airport list